Time;durP1;ratioP1;P1;durP2;ratioP2;P2;SDS_P1;SDS_P2;PMS_P1;PMS_P2;Temp;Humidity;BMP_temperature;BMP_pressure;BME280_temperature;BME280_humidity;BME280_pressure;Samples;Min_cycle;Max_cycle;Signal;HPM_P1;HPM_P2
2022/10/30 00:00:51;;;;;;;15.23;5.70;;;;;;;11.78;100.00;96753.09;5087165;28;20285;-79
2022/10/30 00:03:18;;;;;;;7.30;4.47;;;;;;;11.88;100.00;96770.44;5087117;28;20205;-79
2022/10/30 00:05:47;;;;;;;10.60;4.80;;;;;;;11.85;100.00;96767.38;5084567;28;20236;-79
2022/10/30 00:08:17;;;;;;;14.27;5.10;;;;;;;11.79;100.00;96771.81;5084027;28;20197;-80
2022/10/30 00:10:45;;;;;;;12.53;5.07;;;;;;;11.79;100.00;96765.56;5091199;28;20201;-79
2022/10/30 00:13:13;;;;;;;13.87;4.83;;;;;;;11.82;100.00;96771.38;5078685;28;20218;-80
2022/10/30 00:15:46;;;;;;;15.97;5.33;;;;;;;11.74;100.00;96763.50;5079592;28;20233;-80
2022/10/30 00:18:14;;;;;;;14.57;4.97;;;;;;;11.75;100.00;96767.91;5076089;28;20251;-80
2022/10/30 00:20:41;;;;;;;19.47;5.03;;;;;;;11.73;100.00;96772.69;5083655;28;20201;-82
2022/10/30 00:23:08;;;;;;;11.10;4.17;;;;;;;11.73;100.00;96772.69;5088913;28;20198;-81
2022/10/30 00:25:36;;;;;;;12.00;4.43;;;;;;;11.72;100.00;96768.34;5093611;28;20193;-82
2022/10/30 00:28:04;;;;;;;12.40;4.70;;;;;;;11.66;100.00;96755.69;5087646;28;20193;-81
2022/10/30 00:30:31;;;;;;;11.10;4.57;;;;;;;11.69;100.00;96772.31;5084542;28;20287;-81
2022/10/30 00:32:58;;;;;;;15.27;6.63;;;;;;;11.65;100.00;96778.41;5081351;28;20259;-80
2022/10/30 00:35:25;;;;;;;12.23;5.93;;;;;;;11.59;100.00;96772.03;5081952;28;20597;-79
2022/10/30 00:37:52;;;;;;;11.17;5.40;;;;;;;11.61;100.00;96785.31;5090385;28;20208;-80
2022/10/30 00:40:19;;;;;;;9.87;5.00;;;;;;;11.59;100.00;96777.44;5087330;28;20205;-80
2022/10/30 00:42:48;;;;;;;8.97;5.23;;;;;;;11.56;100.00;96771.66;5089523;28;20212;-80
2022/10/30 00:45:16;;;;;;;10.60;5.53;;;;;;;11.52;100.00;96773.16;5081431;28;20284;-80
2022/10/30 00:47:46;;;;;;;11.33;5.50;;;;;;;11.51;100.00;96791.25;5078267;28;20205;-80
2022/10/30 00:50:17;;;;;;;12.97;5.83;;;;;;;11.48;100.00;96791.72;5089585;28;20205;-80
2022/10/30 00:52:49;;;;;;;13.13;5.90;;;;;;;11.45;100.00;96780.50;5079819;28;20267;-80
2022/10/30 00:55:22;;;;;;;14.00;5.27;;;;;;;11.44;100.00;96781.56;5086007;28;20243;-80
2022/10/30 00:57:52;;;;;;;12.93;5.57;;;;;;;11.42;100.00;96781.78;5086328;28;20213;-80
2022/10/30 01:00:22;;;;;;;13.93;4.50;;;;;;;11.43;100.00;96779.91;5086909;28;20197;-80
2022/10/30 01:02:50;;;;;;;13.27;5.83;;;;;;;11.44;100.00;96787.81;5088441;28;20208;-79
2022/10/30 01:05:20;;;;;;;11.33;5.80;;;;;;;11.46;100.00;96784.88;5080597;28;20193;-80
2022/10/30 01:07:47;;;;;;;15.10;5.30;;;;;;;11.38;100.00;96781.44;5090870;28;20231;-80
2022/10/30 01:10:15;;;;;;;16.47;5.50;;;;;;;11.35;100.00;96779.16;5086317;28;20206;-79
2022/10/30 01:12:47;;;;;;;10.97;4.83;;;;;;;11.34;100.00;96769.38;5085154;28;20312;-79
2022/10/30 01:15:17;;;;;;;11.60;5.07;;;;;;;11.34;100.00;96772.09;5081348;28;20274;-80
2022/10/30 01:18:00;;;;;;;9.83;5.17;;;;;;;11.34;100.00;96773.97;5093099;28;20205;-80
2022/10/30 01:20:45;;;;;;;12.70;5.40;;;;;;;11.34;100.00;96763.97;5088267;28;20211;-80
2022/10/30 01:23:29;;;;;;;17.07;6.47;;;;;;;11.33;100.00;96772.31;5083295;28;20206;-80
2022/10/30 01:26:07;;;;;;;13.77;5.53;;;;;;;11.28;100.00;96767.59;5088680;28;20250;-80
2022/10/30 01:28:55;;;;;;;12.23;6.00;;;;;;;11.28;100.00;96770.28;5082374;28;20201;-79
2022/10/30 01:31:41;;;;;;;13.47;5.13;;;;;;;11.26;100.00;96761.56;5079839;28;20285;-80
2022/10/30 01:34:19;;;;;;;14.73;5.13;;;;;;;11.33;100.00;96759.63;5083075;28;20323;-79
2022/10/30 01:36:53;;;;;;;12.53;5.03;;;;;;;11.35;100.00;96749.41;5075620;28;20259;-80
2022/10/30 01:39:24;;;;;;;13.00;5.30;;;;;;;11.28;100.00;96740.56;5096008;28;20192;-80
2022/10/30 01:41:52;;;;;;;7.90;4.63;;;;;;;11.31;100.00;96739.28;5104451;28;20201;-80
2022/10/30 01:44:22;;;;;;;13.13;5.13;;;;;;;11.39;100.00;96752.50;5086692;28;20193;-80
2022/10/30 01:47:03;;;;;;;14.80;5.70;;;;;;;11.36;100.00;96751.06;5084234;28;20243;-80
2022/10/30 01:49:59;;;;;;;13.17;5.20;;;;;;;11.36;100.00;96750.25;5077567;28;20205;-80
2022/10/30 01:52:36;;;;;;;12.67;5.47;;;;;;;11.35;100.00;96740.47;5087282;28;20212;-80
2022/10/30 01:55:11;;;;;;;12.43;5.40;;;;;;;11.35;100.00;96738.59;5085066;28;20216;-80
2022/10/30 01:57:43;;;;;;;11.87;5.00;;;;;;;11.33;100.00;96737.16;5086500;28;20223;-79
2022/10/30 02:00:15;;;;;;;11.17;4.93;;;;;;;11.28;100.00;96726.22;5088978;28;20220;-79
2022/10/30 02:02:49;;;;;;;13.47;5.87;;;;;;;11.25;100.00;96727.47;5087720;28;20246;-79
2022/10/30 02:05:27;;;;;;;15.80;6.27;;;;;;;11.21;100.00;96730.88;5078279;28;20229;-79
2022/10/30 02:07:55;;;;;;;14.20;6.40;;;;;;;11.22;100.00;96724.41;5098852;28;20211;-79
2022/10/30 02:10:23;;;;;;;11.93;6.00;;;;;;;11.27;100.00;96719.97;5079631;28;20262;-79
2022/10/30 02:12:51;;;;;;;13.10;4.37;;;;;;;11.28;100.00;96726.22;5087476;28;20279;-79
2022/10/30 02:15:18;;;;;;;10.40;5.10;;;;;;;11.24;100.00;96725.81;5088998;28;20201;-79
2022/10/30 02:17:47;;;;;;;11.73;5.50;;;;;;;11.23;100.00;96713.34;5087159;28;20209;-80
2022/10/30 02:20:17;;;;;;;12.60;6.17;;;;;;;11.21;100.00;96726.28;5085341;28;20225;-81
2022/10/30 02:22:44;;;;;;;17.03;5.30;;;;;;;11.22;100.00;96719.00;5086549;28;20216;-80
2022/10/30 02:25:11;;;;;;;12.00;5.73;;;;;;;11.21;100.00;96715.50;5077088;28;20201;-80
2022/10/30 02:27:38;;;;;;;11.63;5.13;;;;;;;11.17;100.00;96713.44;5082627;28;20201;-79
2022/10/30 02:30:07;;;;;;;14.17;6.23;;;;;;;11.08;100.00;96704.81;5078211;28;20277;-79
2022/10/30 02:32:35;;;;;;;13.57;5.47;;;;;;;11.02;100.00;96711.13;5090227;28;20196;-79
2022/10/30 02:35:02;;;;;;;13.93;5.60;;;;;;;10.96;100.00;96699.34;5086405;28;20232;-80
2022/10/30 02:37:34;;;;;;;14.67;5.47;;;;;;;10.98;100.00;96704.50;5082738;28;20209;-79
2022/10/30 02:40:01;;;;;;;12.70;6.00;;;;;;;11.02;100.00;96705.72;5085451;28;20205;-78
2022/10/30 02:42:29;;;;;;;8.00;5.10;;;;;;;11.05;100.00;96709.84;5080452;28;20235;-78
2022/10/30 02:44:57;;;;;;;17.27;5.33;;;;;;;10.95;100.00;96704.97;5082690;28;20197;-79
2022/10/30 02:47:24;;;;;;;16.23;5.50;;;;;;;10.94;100.00;96697.91;5086736;28;20204;-80
2022/10/30 02:49:51;;;;;;;11.73;5.10;;;;;;;10.96;100.00;96699.34;5082614;28;20197;-80
2022/10/30 02:52:18;;;;;;;12.07;5.00;;;;;;;10.93;100.00;96694.38;5084431;28;20288;-80
2022/10/30 02:54:46;;;;;;;12.63;5.03;;;;;;;10.88;100.00;96688.81;5085717;28;20228;-80
2022/10/30 02:57:14;;;;;;;11.30;6.17;;;;;;;10.88;100.00;96682.59;5079515;28;20197;-80
2022/10/30 02:59:41;;;;;;;16.13;6.00;;;;;;;10.88;100.00;96683.41;5081827;28;20201;-80
2022/10/30 03:02:08;;;;;;;17.80;8.10;;;;;;;10.84;100.00;96679.50;5084065;28;20197;-80
2022/10/30 03:04:35;;;;;;;16.77;6.17;;;;;;;10.85;100.00;96664.94;5082333;28;20327;-80
2022/10/30 03:07:02;;;;;;;13.00;5.33;;;;;;;10.84;100.00;96660.59;5080307;28;20196;-79
2022/10/30 03:09:29;;;;;;;18.63;6.80;;;;;;;10.88;100.00;96663.69;5083092;28;20197;-80
2022/10/30 03:11:57;;;;;;;11.00;5.67;;;;;;;10.92;100.00;96675.69;5086614;28;20221;-79
2022/10/30 03:14:24;;;;;;;20.30;5.10;;;;;;;10.83;100.00;96663.50;5084913;28;20217;-80
2022/10/30 03:16:52;;;;;;;11.97;5.27;;;;;;;10.84;100.00;96659.75;5087384;28;20204;-79
2022/10/30 03:19:19;;;;;;;16.57;4.97;;;;;;;10.79;100.00;96656.91;5077372;28;20222;-80
2022/10/30 03:21:47;;;;;;;15.23;4.70;;;;;;;10.92;100.00;96667.56;5085004;28;20193;-80
2022/10/30 03:24:15;;;;;;;10.83;5.17;;;;;;;10.94;100.00;96660.06;5079432;28;20212;-80
2022/10/30 03:26:42;;;;;;;11.23;5.07;;;;;;;10.94;100.00;96665.47;5086998;28;20216;-80
2022/10/30 03:29:10;;;;;;;13.17;5.10;;;;;;;10.81;100.00;96650.22;5084295;28;20198;-80
2022/10/30 03:31:37;;;;;;;14.57;6.43;;;;;;;10.85;100.00;96656.03;5085805;28;20204;-80
2022/10/30 03:34:20;;;;;;;10.40;5.13;;;;;;;10.82;100.00;96646.47;5085538;28;20225;-80
2022/10/30 03:36:47;;;;;;;16.83;6.63;;;;;;;10.81;100.00;96654.81;5083757;28;20296;-80
2022/10/30 03:39:14;;;;;;;13.90;5.37;;;;;;;10.84;100.00;96646.25;5088278;28;20208;-80
2022/10/30 03:41:43;;;;;;;10.77;4.83;;;;;;;10.81;100.00;96644.81;5084437;28;20201;-80
2022/10/30 03:44:13;;;;;;;8.83;5.27;;;;;;;10.79;100.00;96652.34;5077929;28;20208;-80
2022/10/30 03:46:40;;;;;;;11.73;5.43;;;;;;;10.75;100.00;96655.69;5084391;28;20209;-81
2022/10/30 03:49:22;;;;;;;12.13;5.47;;;;;;;10.60;100.00;96642.56;5081604;28;20209;-80
2022/10/30 03:51:49;;;;;;;9.83;5.37;;;;;;;10.69;100.00;96664.72;5075767;28;20304;-81
2022/10/30 03:54:17;;;;;;;10.87;5.53;;;;;;;10.48;100.00;96652.44;5078399;28;20221;-81
2022/10/30 03:56:44;;;;;;;15.47;6.40;;;;;;;10.51;100.00;96655.53;5091205;28;20238;-81
2022/10/30 03:59:15;;;;;;;12.83;5.80;;;;;;;10.45;100.00;96645.63;5087337;28;20204;-80
2022/10/30 04:01:49;;;;;;;7.53;5.73;;;;;;;10.48;100.00;96660.53;5082786;28;20261;-81
2022/10/30 04:04:17;;;;;;;11.60;5.53;;;;;;;10.48;100.00;96666.75;5085987;28;20204;-80
2022/10/30 04:06:44;;;;;;;13.50;6.47;;;;;;;10.46;100.00;96674.25;5084128;28;20229;-79
2022/10/30 04:09:11;;;;;;;13.87;6.33;;;;;;;10.47;100.00;96661.56;5083122;28;20270;-80
2022/10/30 04:11:41;;;;;;;13.03;6.50;;;;;;;10.46;100.00;96666.16;5105674;28;20189;-79
2022/10/30 04:14:08;;;;;;;14.60;6.73;;;;;;;10.65;100.00;96668.88;5103524;28;20228;-80
2022/10/30 04:16:37;;;;;;;12.73;5.93;;;;;;;10.69;100.00;96676.34;5091089;28;20292;-79
2022/10/30 04:19:04;;;;;;;11.60;6.23;;;;;;;10.75;100.00;96670.03;5088240;28;20283;-80
2022/10/30 04:21:31;;;;;;;14.03;6.67;;;;;;;10.67;100.00;96658.69;5085378;28;20212;-80
2022/10/30 04:23:58;;;;;;;10.57;6.50;;;;;;;10.73;100.00;96658.63;5090574;28;20231;-80
2022/10/30 04:26:28;;;;;;;10.93;6.27;;;;;;;10.76;100.00;96662.75;5088044;28;20193;-79
2022/10/30 04:28:55;;;;;;;11.70;6.57;;;;;;;10.84;100.00;96684.06;5080698;28;20194;-80
2022/10/30 04:31:22;;;;;;;21.23;6.97;;;;;;;10.74;100.00;96676.47;5079011;28;20197;-79
2022/10/30 04:33:51;;;;;;;10.40;7.23;;;;;;;10.84;100.00;96681.38;5075411;28;20263;-79
2022/10/30 04:36:20;;;;;;;13.17;7.10;;;;;;;10.88;100.00;96688.00;5088254;28;20197;-79
2022/10/30 04:38:47;;;;;;;15.13;7.67;;;;;;;10.91;100.00;96690.22;5089301;28;20224;-78
2022/10/30 04:41:14;;;;;;;16.50;6.90;;;;;;;10.80;100.00;96680.19;5089432;28;20207;-79
2022/10/30 04:43:52;;;;;;;14.20;7.17;;;;;;;10.76;100.00;96685.19;5084304;28;20215;-79
2022/10/30 04:46:19;;;;;;;15.10;6.80;;;;;;;10.76;100.00;96689.78;5089418;28;20211;-79
2022/10/30 04:48:46;;;;;;;12.90;7.07;;;;;;;10.78;100.00;96698.47;5087304;28;20204;-79
2022/10/30 04:51:15;;;;;;;17.53;7.57;;;;;;;10.80;100.00;96701.78;5075353;28;20207;-79
2022/10/30 04:53:44;;;;;;;15.47;8.47;;;;;;;10.74;100.00;96694.56;5088204;28;20277;-79
2022/10/30 04:56:15;;;;;;;13.33;6.57;;;;;;;10.77;100.00;96702.22;5082297;28;20213;-79
2022/10/30 04:58:42;;;;;;;12.73;6.60;;;;;;;10.79;100.00;96700.13;5088970;28;20208;-79
2022/10/30 05:01:09;;;;;;;11.97;6.57;;;;;;;10.75;100.00;96690.81;5081297;28;20209;-80
2022/10/30 05:03:37;;;;;;;13.20;6.63;;;;;;;10.80;100.00;96693.69;5084034;28;20239;-79
2022/10/30 05:06:19;;;;;;;15.70;8.03;;;;;;;10.81;100.00;96696.16;5078067;28;20330;-79
2022/10/30 05:08:47;;;;;;;17.50;6.27;;;;;;;10.83;100.00;96707.56;5092580;28;20197;-79
2022/10/30 05:11:25;;;;;;;12.17;6.30;;;;;;;10.83;100.00;96701.31;5087179;28;20239;-79
2022/10/30 05:13:52;;;;;;;12.63;6.80;;;;;;;10.83;100.00;96693.22;5088958;28;20204;-79
2022/10/30 05:16:19;;;;;;;14.57;7.23;;;;;;;10.81;100.00;96703.41;5087336;28;20204;-79
2022/10/30 05:18:46;;;;;;;13.63;5.87;;;;;;;10.85;100.00;96699.25;5084168;28;20311;-79
2022/10/30 05:21:14;;;;;;;10.97;6.53;;;;;;;10.75;100.00;96683.53;5084492;28;20288;-78
2022/10/30 05:23:42;;;;;;;18.93;6.37;;;;;;;10.75;100.00;96685.41;5079018;28;20213;-79
2022/10/30 05:26:10;;;;;;;13.73;6.40;;;;;;;10.73;100.00;96691.03;5082344;28;20216;-79
2022/10/30 05:28:38;;;;;;;12.03;6.63;;;;;;;10.81;100.00;96692.63;5074282;28;20205;-79
2022/10/30 05:31:05;;;;;;;10.83;7.53;;;;;;;10.78;100.00;96693.91;5077174;28;20216;-78
2022/10/30 05:34:11;;;;;;;16.13;6.77;;;;;;;10.79;100.00;96686.63;5029259;28;20262;-79
2022/10/30 05:36:39;;;;;;;13.77;6.53;;;;;;;10.78;100.00;96701.19;5022268;28;20326;-79
2022/10/30 05:39:09;;;;;;;12.13;6.27;;;;;;;10.73;100.00;96684.81;5056189;28;20231;-79
2022/10/30 05:41:39;;;;;;;12.57;6.17;;;;;;;10.72;100.00;96680.47;5085662;28;20198;-79
2022/10/30 05:44:08;;;;;;;21.63;6.70;;;;;;;10.78;100.00;96683.09;5075086;28;20212;-79
2022/10/30 05:46:35;;;;;;;20.27;7.27;;;;;;;10.75;100.00;96688.13;5081922;28;20233;-80
2022/10/30 05:49:27;;;;;;;19.17;7.03;;;;;;;10.67;100.00;96669.50;5081164;28;20205;-80
2022/10/30 05:51:54;;;;;;;13.97;7.63;;;;;;;10.79;100.00;96689.34;5084522;28;20237;-80
2022/10/30 05:54:23;;;;;;;12.37;6.10;;;;;;;10.74;100.00;96675.66;5086955;28;20235;-80
2022/10/30 05:57:10;;;;;;;11.40;5.80;;;;;;;10.69;100.00;96665.53;5064423;28;20209;-81
2022/10/30 05:59:39;;;;;;;15.73;8.03;;;;;;;10.71;100.00;96676.13;5077786;28;20259;-79
2022/10/30 06:02:06;;;;;;;12.50;6.00;;;;;;;10.80;100.00;96696.41;5083871;28;20208;-78
2022/10/30 06:04:33;;;;;;;11.73;5.70;;;;;;;10.77;100.00;96691.44;5085635;28;20209;-78
2022/10/30 06:07:03;;;;;;;13.17;5.70;;;;;;;10.72;100.00;96680.47;5086859;28;20257;-78
2022/10/30 06:09:32;;;;;;;15.30;5.80;;;;;;;10.78;100.00;96699.31;5083217;28;20193;-81
2022/10/30 06:11:59;;;;;;;14.83;6.43;;;;;;;10.59;100.00;96673.31;5086470;28;20219;-81
2022/10/30 06:14:45;;;;;;;11.47;6.13;;;;;;;10.68;100.00;96698.16;5087137;28;20313;-81
2022/10/30 06:17:12;;;;;;;14.40;6.43;;;;;;;10.65;100.00;96695.91;5085445;28;20385;-80
2022/10/30 06:19:54;;;;;;;14.03;6.03;;;;;;;10.71;100.00;96703.13;5094664;28;20240;-80
2022/10/30 06:22:57;;;;;;;13.33;5.53;;;;;;;10.66;100.00;96694.84;5077004;28;20209;-81
2022/10/30 06:25:30;;;;;;;18.60;5.27;;;;;;;10.70;100.00;96709.56;5076397;28;20213;-81
2022/10/30 06:28:09;;;;;;;9.80;5.80;;;;;;;10.73;100.00;96711.81;5071035;28;20205;-81
2022/10/30 06:30:36;;;;;;;12.93;5.50;;;;;;;10.72;100.00;96704.78;5085818;28;20215;-82
2022/10/30 06:33:05;;;;;;;12.73;5.97;;;;;;;10.68;100.00;96720.59;5086525;28;20203;-83
2022/10/30 06:35:34;;;;;;;19.23;7.80;;;;;;;10.71;100.00;96712.06;5084079;28;20224;-83
2022/10/30 06:38:01;;;;;;;10.47;6.40;;;;;;;10.69;100.00;96708.75;5077079;28;20215;-82
2022/10/30 06:40:32;;;;;;;16.40;7.50;;;;;;;10.68;100.00;96708.97;5084461;28;20201;-83
2022/10/30 06:43:17;;;;;;;11.17;6.63;;;;;;;10.70;100.00;96713.09;5081905;28;20231;-80
2022/10/30 06:45:51;;;;;;;11.90;6.30;;;;;;;10.69;100.00;96710.63;5079516;28;20284;-81
2022/10/30 06:48:18;;;;;;;14.73;6.90;;;;;;;10.59;100.00;96722.75;5080803;28;20250;-81
2022/10/30 06:50:55;;;;;;;16.37;6.23;;;;;;;10.57;100.00;96718.59;5082380;28;20258;-80
2022/10/30 06:53:23;;;;;;;16.70;6.40;;;;;;;10.60;100.00;96718.19;5081063;28;20194;-81
2022/10/30 06:55:57;;;;;;;11.47;5.77;;;;;;;10.61;100.00;96720.66;5074018;28;20263;-82
2022/10/30 06:58:41;;;;;;;10.83;5.70;;;;;;;10.66;100.00;96722.69;5077530;28;20200;-81
2022/10/30 07:01:11;;;;;;;15.00;6.77;;;;;;;10.70;100.00;96720.38;5078824;28;20232;-80
2022/10/30 07:03:56;;;;;;;11.93;5.90;;;;;;;10.72;100.00;96715.59;5080920;28;20216;-81
2022/10/30 07:06:23;;;;;;;10.27;5.70;;;;;;;10.78;100.00;96720.91;5075143;28;20246;-80
2022/10/30 07:08:50;;;;;;;9.83;5.50;;;;;;;10.86;100.00;96717.09;5081657;28;20211;-81
2022/10/30 07:11:19;;;;;;;16.23;5.67;;;;;;;10.89;100.00;96722.88;5081362;28;20236;-80
2022/10/30 07:14:04;;;;;;;9.70;5.73;;;;;;;10.90;100.00;96715.59;5080379;28;20271;-80
2022/10/30 07:16:46;;;;;;;14.07;6.23;;;;;;;10.89;100.00;96722.03;5078734;28;20204;-79
2022/10/30 07:19:13;;;;;;;12.27;6.47;;;;;;;10.90;100.00;96726.41;5077766;28;20217;-80
2022/10/30 07:21:40;;;;;;;14.87;5.63;;;;;;;10.91;100.00;96722.66;5076695;28;20205;-80
2022/10/30 07:24:08;;;;;;;15.47;6.50;;;;;;;10.92;100.00;96729.72;5077799;28;20205;-81
2022/10/30 07:26:51;;;;;;;11.30;6.17;;;;;;;10.89;100.00;96732.84;5083669;28;20200;-79
2022/10/30 07:29:37;;;;;;;14.50;6.87;;;;;;;10.90;100.00;96726.41;5079387;28;20208;-81
2022/10/30 07:32:12;;;;;;;14.50;6.83;;;;;;;10.94;100.00;96725.75;5083272;28;20234;-80
2022/10/30 07:35:02;;;;;;;10.53;6.13;;;;;;;10.98;100.00;96734.22;5069312;28;20263;-78
2022/10/30 07:37:50;;;;;;;13.00;7.07;;;;;;;10.95;100.00;96740.91;5080593;28;20225;-77
2022/10/30 07:40:18;;;;;;;14.47;5.97;;;;;;;10.99;100.00;96733.16;5078656;28;20227;-78
2022/10/30 07:42:57;;;;;;;17.97;6.60;;;;;;;11.03;100.00;96739.78;5076869;28;20197;-78
2022/10/30 07:45:47;;;;;;;13.00;6.60;;;;;;;11.00;100.00;96734.81;5075930;28;20335;-78
2022/10/30 07:48:37;;;;;;;11.13;5.93;;;;;;;11.03;100.00;96737.09;5078791;28;20200;-78
2022/10/30 07:51:24;;;;;;;13.27;6.10;;;;;;;11.04;100.00;96738.75;5084324;28;20238;-78
2022/10/30 07:53:51;;;;;;;17.47;7.00;;;;;;;11.03;100.00;96728.97;5100940;28;20201;-78
2022/10/30 07:56:19;;;;;;;13.63;7.10;;;;;;;11.06;100.00;96733.91;5079435;28;20216;-78
2022/10/30 07:58:54;;;;;;;12.30;6.67;;;;;;;10.99;100.00;96739.41;5078905;28;20240;-78
2022/10/30 08:01:53;;;;;;;15.53;8.87;;;;;;;11.06;100.00;96736.63;5082779;28;20201;-78
2022/10/30 08:04:31;;;;;;;14.67;6.93;;;;;;;11.10;100.00;96724.34;5072911;28;20201;-78
2022/10/30 08:07:06;;;;;;;14.90;7.00;;;;;;;11.16;100.00;96720.72;5083678;28;20206;-78
2022/10/30 08:09:34;;;;;;;13.93;7.17;;;;;;;11.21;100.00;96726.28;5080585;28;20260;-78
2022/10/30 08:12:02;;;;;;;16.90;6.70;;;;;;;11.27;100.00;96719.97;5080825;28;20203;-78
2022/10/30 08:14:33;;;;;;;15.57;7.50;;;;;;;11.35;100.00;96725.09;5083661;28;20208;-78
2022/10/30 08:17:01;;;;;;;12.07;6.70;;;;;;;11.46;100.00;96718.09;5096823;28;20215;-78
2022/10/30 08:19:28;;;;;;;19.57;7.47;;;;;;;11.51;100.00;96715.53;5082741;28;20216;-78
2022/10/30 08:21:55;;;;;;;11.40;7.27;;;;;;;11.56;100.00;96728.38;5082316;28;20235;-78
2022/10/30 08:24:22;;;;;;;14.13;7.50;;;;;;;11.63;100.00;96713.72;5081873;28;20193;-78
2022/10/30 08:26:52;;;;;;;12.27;7.40;;;;;;;11.79;100.00;96711.47;5081228;28;20270;-77
2022/10/30 08:29:19;;;;;;;13.30;7.03;;;;;;;11.79;100.00;96700.66;5083741;28;20244;-80
2022/10/30 08:31:50;;;;;;;16.50;7.90;;;;;;;11.90;100.00;96708.00;5081290;28;20244;-80
2022/10/30 08:34:43;;;;;;;13.10;6.90;;;;;;;12.01;100.00;96709.88;5080084;28;20244;-80
2022/10/30 08:37:10;;;;;;;14.30;6.70;;;;;;;12.11;100.00;96702.03;5088994;28;20240;-80
2022/10/30 08:39:38;;;;;;;10.87;6.33;;;;;;;12.19;100.00;96707.13;5087585;28;20401;-80
2022/10/30 08:42:37;;;;;;;15.53;7.10;;;;;;;12.37;100.00;96708.94;5070138;28;20200;-80
2022/10/30 08:45:10;;;;;;;15.33;7.50;;;;;;;12.51;100.00;96707.66;5088138;28;20207;-79
2022/10/30 08:48:06;;;;;;;8.40;6.20;;;;;;;12.64;100.00;96704.75;5081008;28;20205;-79
2022/10/30 08:50:37;;;;;;;12.27;6.07;;;;;;;12.75;100.00;96703.09;5075773;28;20209;-79
2022/10/30 08:53:07;;;;;;;13.23;7.07;;;;;;;12.83;100.00;96708.16;5083445;28;20207;-79
2022/10/30 08:55:36;;;;;;;12.47;6.30;;;;;;;12.89;100.00;96696.38;5087580;28;20218;-80
2022/10/30 08:58:09;;;;;;;14.57;6.93;;;;;;;12.99;100.00;96707.47;5083995;28;20296;-79
2022/10/30 09:00:37;;;;;;;13.77;6.57;;;;;;;13.07;100.00;96717.13;5085246;28;20197;-80
2022/10/30 09:03:14;;;;;;;15.40;7.03;;;;;;;13.20;100.00;96711.47;5090854;28;20202;-79
2022/10/30 09:06:12;;;;;;;14.60;7.30;;;;;;;13.30;100.00;96703.56;5083207;28;20204;-79
2022/10/30 09:08:58;;;;;;;13.03;6.87;;;;;;;13.35;100.00;96695.53;5090221;28;20307;-80
2022/10/30 09:11:32;;;;;;;15.50;6.93;;;;;;;13.47;100.00;96712.59;5086966;28;20223;-80
2022/10/30 09:13:59;;;;;;;21.17;6.00;;;;;;;13.63;100.00;96703.69;5094137;28;20205;-80
2022/10/30 09:16:26;;;;;;;12.93;6.10;;;;;;;13.80;100.00;96713.78;5087566;28;20221;-80
2022/10/30 09:18:54;;;;;;;10.30;5.60;;;;;;;13.83;100.00;96691.59;5107102;28;20239;-80
2022/10/30 09:21:22;;;;;;;11.53;5.87;;;;;;;14.08;100.00;96705.66;5082825;28;20239;-80
2022/10/30 09:23:52;;;;;;;17.57;6.50;;;;;;;14.18;100.00;96710.44;5081410;28;20209;-80
2022/10/30 09:26:34;;;;;;;13.50;5.47;;;;;;;14.32;100.00;96704.47;5084995;28;20542;-80
2022/10/30 09:29:09;;;;;;;10.83;5.00;;;;;;;14.48;100.00;96707.47;5086466;28;20228;-80
2022/10/30 09:31:54;;;;;;;16.87;5.10;;;;;;;14.62;100.00;96706.91;5076693;28;20378;-80
2022/10/30 09:34:25;;;;;;;15.47;5.90;;;;;;;14.71;100.00;96705.44;5086212;28;20240;-80
2022/10/30 09:37:02;;;;;;;15.17;5.27;;;;;;;14.90;100.00;96702.44;5079667;28;20221;-81
2022/10/30 09:39:31;;;;;;;12.73;5.40;;;;;;;15.07;100.00;96697.78;5079781;28;20244;-80
2022/10/30 09:42:21;;;;;;;10.60;5.23;;;;;;;15.20;100.00;96708.34;5088687;28;20205;-80
2022/10/30 09:45:12;;;;;;;10.97;5.23;;;;;;;15.39;100.00;96711.59;5096407;28;20226;-80
2022/10/30 09:47:49;;;;;;;14.10;5.20;;;;;;;15.53;100.00;96704.69;5094145;28;20204;-80
2022/10/30 09:50:25;;;;;;;14.67;5.20;;;;;;;15.60;100.00;96699.91;5087743;28;20295;-80
2022/10/30 09:53:03;;;;;;;15.50;5.33;;;;;;;15.73;100.00;96707.72;5092520;28;20209;-80
2022/10/30 09:55:44;;;;;;;18.87;5.87;;;;;;;15.86;100.00;96701.84;5087236;28;20294;-80
2022/10/30 09:58:33;;;;;;;9.93;4.80;;;;;;;16.02;100.00;96711.03;5089252;28;20201;-80
2022/10/30 10:01:13;;;;;;;14.53;4.80;;;;;;;16.14;100.00;96694.53;5091137;28;20284;-80
2022/10/30 10:04:01;;;;;;;15.23;4.90;;;;;;;16.25;100.00;96701.72;5102909;28;20219;-80
2022/10/30 10:06:55;;;;;;;9.50;5.33;;;;;;;16.44;100.00;96711.16;5084065;28;20201;-80
2022/10/30 10:09:44;;;;;;;16.93;5.60;;;;;;;16.49;100.00;96708.50;5095766;28;20216;-80
2022/10/30 10:12:38;;;;;;;10.03;4.43;;;;;;;16.71;100.00;96710.34;5099315;28;20211;-81
2022/10/30 10:15:12;;;;;;;11.70;4.73;;;;;;;16.77;100.00;96699.22;5081618;28;20212;-80
2022/10/30 10:17:43;;;;;;;8.70;4.50;;;;;;;16.91;100.00;96702.34;5083197;28;20209;-81
2022/10/30 10:20:18;;;;;;;9.87;4.57;;;;;;;16.95;100.00;96711.63;5084327;28;20318;-78
2022/10/30 10:22:49;;;;;;;13.10;4.30;;;;;;;17.05;100.00;96708.97;5090214;28;20208;-79
2022/10/30 10:25:19;;;;;;;13.00;5.13;;;;;;;17.06;100.00;96721.53;5088573;28;20201;-78
2022/10/30 10:27:59;;;;;;;10.37;4.90;;;;;;;17.17;100.00;96717.81;5094962;28;20199;-78
2022/10/30 10:30:35;;;;;;;9.23;4.83;;;;;;;17.15;100.00;96700.88;5103093;28;20196;-78
2022/10/30 10:33:19;;;;;;;13.50;4.80;;;;;;;17.17;100.00;96714.25;5089793;28;20292;-78
2022/10/30 10:35:59;;;;;;;12.40;4.80;;;;;;;17.28;100.00;96703.13;5086303;28;20296;-79
2022/10/30 10:38:47;;;;;;;13.27;4.07;;;;;;;17.53;100.00;96707.06;5097864;28;20235;-79
2022/10/30 10:41:24;;;;;;;7.83;4.53;;;;;;;17.62;100.00;96708.22;5080038;28;20212;-78
2022/10/30 10:44:02;;;;;;;8.30;4.37;;;;;;;17.72;100.00;96698.19;5081041;28;20209;-78
2022/10/30 10:46:53;;;;;;;9.97;4.50;;;;;;;17.85;100.00;96702.34;5084205;28;20208;-78
2022/10/30 10:49:37;;;;;;;6.83;4.63;;;;;;;18.02;100.00;96699.41;5072860;28;20216;-79
2022/10/30 10:52:09;;;;;;;14.87;4.43;;;;;;;18.12;100.00;96696.66;5083427;28;20292;-79
2022/10/30 10:54:43;;;;;;;8.97;4.63;;;;;;;18.30;100.00;96698.91;5094519;28;20212;-78
2022/10/30 10:57:22;;;;;;;9.27;4.27;;;;;;;18.50;100.00;96709.06;5090354;28;20350;-79
2022/10/30 10:59:55;;;;;;;8.67;4.50;;;;;;;18.56;100.00;96712.59;5092149;28;20204;-78
2022/10/30 11:02:34;;;;;;;10.43;4.40;;;;;;;18.54;100.00;96688.28;5093863;28;20201;-78
2022/10/30 11:05:07;;;;;;;9.73;4.30;;;;;;;18.58;100.00;96688.56;5091635;28;20257;-78
2022/10/30 11:07:39;;;;;;;15.33;4.10;;;;;;;18.58;100.00;96691.31;5095456;28;20204;-78
2022/10/30 11:10:13;;;;;;;9.13;4.00;;;;;;;18.66;100.00;96697.06;5081053;28;20224;-78
2022/10/30 11:12:41;;;;;;;8.63;3.90;;;;;;;18.76;100.00;96691.59;5095758;28;20221;-78
2022/10/30 11:15:26;;;;;;;9.73;4.10;;;;;;;18.85;100.00;96695.44;5084089;28;20201;-79
2022/10/30 11:18:00;;;;;;;12.13;4.33;;;;;;;18.89;100.00;96685.56;5087237;28;20220;-78
2022/10/30 11:20:38;;;;;;;8.20;4.30;;;;;;;18.99;100.00;96692.13;5088871;28;20235;-78
2022/10/30 11:23:37;;;;;;;10.77;4.43;;;;;;;19.10;99.61;96691.03;5082627;28;20208;-78
2022/10/30 11:26:05;;;;;;;8.73;4.32;;;;;;;19.04;99.86;96681.19;5079195;28;20226;-78
2022/10/30 11:28:39;;;;;;;10.47;4.53;;;;;;;18.95;100.00;96685.56;5081711;28;20209;-78
2022/10/30 11:31:23;;;;;;;11.23;4.90;;;;;;;18.86;100.00;96677.09;5079180;28;20286;-78
2022/10/30 11:33:51;;;;;;;12.60;4.60;;;;;;;18.78;100.00;96678.47;5093463;28;20204;-79
2022/10/30 11:36:22;;;;;;;8.23;4.13;;;;;;;18.64;100.00;96671.88;5089358;28;20217;-78
2022/10/30 11:38:51;;;;;;;9.87;4.30;;;;;;;18.57;100.00;96681.47;5089648;28;20193;-78
2022/10/30 11:41:21;;;;;;;12.52;4.28;;;;;;;18.54;100.00;96688.28;5092694;28;20200;-78
2022/10/30 11:43:48;;;;;;;11.63;4.20;;;;;;;18.42;100.00;96680.34;5076309;28;20217;-78
2022/10/30 11:46:22;;;;;;;8.30;4.10;;;;;;;18.33;100.00;96687.44;5082147;28;20201;-79